createdAt,value
2023-03-25T00:02:24.198Z,97838.00
2023-03-25T00:04:56.004Z,97836.69
2023-03-25T00:07:26.359Z,97840.28
2023-03-25T00:09:57.877Z,97837.63
2023-03-25T00:15:12.750Z,97830.53
2023-03-25T00:18:14.284Z,97832.53
2023-03-25T00:20:45.939Z,97835.78
2023-03-25T00:23:14.959Z,97820.59
2023-03-25T00:25:45.830Z,97810.75
2023-03-25T00:28:19.132Z,97803.59
2023-03-25T00:30:52.775Z,97796.88
2023-03-25T00:33:24.464Z,97805.22
2023-03-25T00:36:02.448Z,97805.69
2023-03-25T00:38:37.564Z,97804.53
2023-03-25T00:41:36.432Z,97799.00
2023-03-25T00:44:16.531Z,97799.78
2023-03-25T00:46:44.562Z,97806.81
2023-03-25T00:49:20.916Z,97800.16
2023-03-25T00:51:55.949Z,97789.94
2023-03-25T00:54:27.818Z,97779.16
2023-03-25T00:56:58.906Z,97792.81
2023-03-25T00:59:31.000Z,97789.00
2023-03-25T01:02:06.901Z,97785.88
2023-03-25T01:04:42.948Z,97785.19
2023-03-25T01:07:16.526Z,97786.31
2023-03-25T01:09:53.618Z,97786.31
2023-03-25T01:12:25.112Z,97792.16
2023-03-25T01:15:04.486Z,97791.88
2023-03-25T01:17:39.541Z,97790.59
2023-03-25T01:20:14.071Z,97780.75
2023-03-25T01:22:54.918Z,97781.28
2023-03-25T01:25:30.709Z,97775.00
2023-03-25T01:28:04.213Z,97775.47
2023-03-25T01:30:33.785Z,97773.88
2023-03-25T01:33:15.380Z,97767.88
2023-03-25T01:35:46.015Z,97764.50
2023-03-25T01:38:16.542Z,97767.06
2023-03-25T01:40:52.190Z,97778.34
2023-03-25T01:43:26.735Z,97781.28
2023-03-25T01:46:11.092Z,97779.91
2023-03-25T01:48:45.170Z,97788.84
2023-03-25T01:51:33.094Z,97780.47
2023-03-25T01:54:03.850Z,97772.94
2023-03-25T01:56:52.281Z,97768.88
2023-03-25T01:59:31.262Z,97767.25
2023-03-25T02:02:22.220Z,97773.91
2023-03-25T02:05:10.906Z,97768.09
2023-03-25T02:07:42.758Z,97762.69
2023-03-25T02:10:18.889Z,97767.78
2023-03-25T02:12:55.976Z,97746.88
2023-03-25T02:15:26.421Z,97763.19
2023-03-25T02:18:30.198Z,97758.03
2023-03-25T02:21:22.645Z,97753.22
2023-03-25T02:24:35.192Z,97754.84
2023-03-25T02:27:28.119Z,97730.50
2023-03-25T02:30:40.019Z,97760.16
2023-03-25T02:33:34.819Z,97765.63
2023-03-25T02:36:19.064Z,97759.00
2023-03-25T02:39:07.860Z,97762.94
2023-03-25T02:41:56.375Z,97762.22
2023-03-25T02:45:36.969Z,97771.25
2023-03-25T02:48:18.839Z,97763.41
2023-03-25T02:51:18.768Z,97767.97
2023-03-25T02:53:52.799Z,97763.41
2023-03-25T02:56:29.700Z,97769.34
2023-03-25T02:59:06.748Z,97766.91
2023-03-25T03:01:37.165Z,97765.78
2023-03-25T03:04:07.606Z,97771.66
2023-03-25T03:06:42.231Z,97775.97
2023-03-25T03:09:46.801Z,97772.63
2023-03-25T03:13:06.241Z,97776.97
2023-03-25T03:16:35.461Z,97767.94
2023-03-25T03:19:39.172Z,97777.81
2023-03-25T03:22:55.317Z,97765.97
2023-03-25T03:25:51.735Z,97776.44
2023-03-25T03:28:51.378Z,97772.13
2023-03-25T03:31:48.214Z,97776.28
2023-03-25T03:34:51.852Z,97767.59
2023-03-25T03:37:32.179Z,97747.44
2023-03-25T03:40:07.227Z,97774.94
2023-03-25T03:43:05.828Z,97777.16
2023-03-25T03:45:46.381Z,97778.66
2023-03-25T03:48:33.123Z,97774.19
2023-03-25T03:51:44.753Z,97762.72
2023-03-25T03:54:28.492Z,97765.28
2023-03-25T03:57:37.215Z,97764.53
2023-03-25T04:03:05.072Z,97773.59
2023-03-25T04:05:36.697Z,97782.25
2023-03-25T04:08:32.000Z,97781.59
2023-03-25T04:11:15.486Z,97789.09
2023-03-25T04:13:48.231Z,97784.06
2023-03-25T04:16:19.214Z,97783.41
2023-03-25T04:18:56.304Z,97793.88
2023-03-25T04:21:33.527Z,97786.91
2023-03-25T04:24:02.612Z,97799.19
2023-03-25T04:26:34.838Z,97790.25
2023-03-25T04:29:05.528Z,97804.44
2023-03-25T04:31:38.049Z,97808.50
2023-03-25T04:34:08.280Z,97800.38
2023-03-25T04:36:37.935Z,97799.53
2023-03-25T04:39:08.416Z,97817.19
2023-03-25T04:41:38.924Z,97800.94
2023-03-25T04:44:11.198Z,97808.06
2023-03-25T04:46:41.976Z,97812.22
2023-03-25T04:49:19.188Z,97806.31
2023-03-25T04:52:06.945Z,97807.72
2023-03-25T04:54:38.599Z,97810.50
2023-03-25T04:57:12.077Z,97816.03
2023-03-25T04:59:43.038Z,97807.03
2023-03-25T05:02:14.901Z,97813.44
2023-03-25T05:04:50.678Z,97804.16
2023-03-25T05:07:35.319Z,97824.06
2023-03-25T05:10:07.094Z,97828.16
2023-03-25T05:12:44.482Z,97841.63
2023-03-25T05:15:20.837Z,97841.50
2023-03-25T05:17:54.366Z,97846.63
2023-03-25T05:20:26.172Z,97858.16
2023-03-25T05:23:00.172Z,97858.81
2023-03-25T05:25:34.681Z,97852.34
2023-03-25T05:28:06.859Z,97862.63
2023-03-25T05:30:39.226Z,97867.13
2023-03-25T05:33:12.686Z,97866.97
2023-03-25T05:35:41.096Z,97857.22
2023-03-25T05:38:15.854Z,97881.25
2023-03-25T05:40:51.020Z,97883.50
2023-03-25T05:43:28.598Z,97864.03
2023-03-25T05:45:58.711Z,97896.44
2023-03-25T05:48:35.598Z,97896.94
2023-03-25T05:51:18.478Z,97876.13
2023-03-25T05:54:08.946Z,97900.84
2023-03-25T05:56:39.991Z,97898.56
2023-03-25T05:59:18.665Z,97908.84
2023-03-25T06:01:50.049Z,97909.50
2023-03-25T06:04:21.994Z,97914.69
2023-03-25T06:06:50.865Z,97920.22
2023-03-25T06:09:22.541Z,97909.00
2023-03-25T06:12:01.276Z,97919.09
2023-03-25T06:14:35.060Z,97908.50
2023-03-25T06:17:05.920Z,97861.78
2023-03-25T06:19:39.249Z,97931.31
2023-03-25T06:22:12.202Z,97900.53
2023-03-25T06:24:45.817Z,97934.53
2023-03-25T06:27:26.124Z,97942.06
2023-03-25T06:30:03.132Z,97930.97
2023-03-25T06:35:21.998Z,97953.78
2023-03-25T06:40:49.031Z,97966.81
2023-03-25T06:43:18.920Z,97962.41
2023-03-25T06:45:49.574Z,97971.03
2023-03-25T06:48:36.680Z,97970.19
2023-03-25T06:51:07.193Z,97975.91
2023-03-25T06:53:37.371Z,97983.53
2023-03-25T06:56:07.473Z,97993.81
2023-03-25T07:01:29.195Z,97999.16
2023-03-25T07:04:06.320Z,97988.88
2023-03-25T07:06:39.410Z,98006.94
2023-03-25T07:09:09.355Z,98000.09
2023-03-25T07:11:39.998Z,98004.97
2023-03-25T07:14:10.920Z,98008.28
2023-03-25T07:16:41.208Z,97998.81
2023-03-25T07:19:13.838Z,97975.03
2023-03-25T07:21:51.455Z,98001.91
2023-03-25T07:24:29.207Z,98011.50
2023-03-25T07:29:51.648Z,98041.25
2023-03-25T07:32:22.009Z,98045.63
2023-03-25T07:35:05.152Z,98022.34
2023-03-25T07:37:45.637Z,98007.53
2023-03-25T07:40:17.246Z,98013.38
2023-03-25T07:45:58.067Z,98029.03
2023-03-25T07:48:39.271Z,98039.88
2023-03-25T07:51:18.942Z,98045.00
2023-03-25T07:53:49.604Z,98052.03
2023-03-25T07:56:19.976Z,98054.94
2023-03-25T08:01:38.370Z,98033.66
2023-03-25T08:04:09.226Z,98038.53
2023-03-25T08:06:41.361Z,98041.38
2023-03-25T08:09:15.812Z,98058.06
2023-03-25T08:11:47.636Z,98068.66
2023-03-25T08:14:15.482Z,98054.88
2023-03-25T08:19:33.693Z,98043.97
2023-03-25T08:22:04.062Z,98049.56
2023-03-25T08:24:35.547Z,98049.06
2023-03-25T08:27:13.889Z,98058.66
2023-03-25T08:29:49.258Z,98079.75
2023-03-25T08:32:18.896Z,98068.88
2023-03-25T08:34:48.651Z,98045.44
2023-03-25T08:37:21.157Z,98035.00
2023-03-25T08:42:43.086Z,98059.06
2023-03-25T08:45:18.959Z,98071.34
2023-03-25T08:47:49.700Z,98067.66
2023-03-25T08:53:08.085Z,98094.19
2023-03-25T08:55:38.661Z,98094.97
2023-03-25T08:58:10.653Z,98069.06
2023-03-25T09:00:38.702Z,98072.03
2023-03-25T09:03:09.342Z,98082.13
2023-03-25T09:05:42.109Z,98083.13
2023-03-25T09:08:13.155Z,98081.50
2023-03-25T09:10:43.560Z,98094.97
2023-03-25T09:13:18.322Z,98098.53
2023-03-25T09:15:49.134Z,98089.69
2023-03-25T09:18:19.268Z,98091.50
2023-03-25T09:20:54.301Z,98101.41
2023-03-25T09:23:28.334Z,98117.25
2023-03-25T09:26:08.092Z,98105.03
2023-03-25T09:28:39.645Z,98121.44
2023-03-25T09:31:12.120Z,98127.16
2023-03-25T09:33:39.923Z,98130.22
2023-03-25T09:36:15.180Z,98133.47
2023-03-25T09:38:43.522Z,98127.59
2023-03-25T09:41:55.677Z,98131.47
2023-03-25T09:44:31.060Z,98134.13
2023-03-25T09:47:05.078Z,98106.97
2023-03-25T09:49:43.285Z,98122.06
2023-03-25T09:55:25.327Z,98153.28
2023-03-25T09:58:06.215Z,98155.88
2023-03-25T10:00:40.296Z,98159.44
2023-03-25T10:03:54.602Z,98182.66
2023-03-25T10:06:29.801Z,98210.03
2023-03-25T10:09:33.433Z,98212.72
2023-03-25T10:12:17.244Z,98209.25
2023-03-25T10:15:25.592Z,98212.00
2023-03-25T10:21:24.676Z,98218.53
2023-03-25T10:24:07.620Z,98222.94
2023-03-25T10:26:53.285Z,98215.28
2023-03-25T10:32:24.430Z,98234.56
2023-03-25T10:34:56.277Z,98274.84
2023-03-25T10:37:32.445Z,98293.84
2023-03-25T10:40:36.034Z,98292.44
2023-03-25T10:43:32.478Z,98292.44
2023-03-25T10:46:47.735Z,98303.47
2023-03-25T10:49:22.068Z,98308.91
2023-03-25T10:51:54.872Z,98299.31
2023-03-25T10:54:26.731Z,98268.34
2023-03-25T10:57:11.233Z,98264.88
2023-03-25T10:59:52.421Z,98223.22
2023-03-25T11:02:29.899Z,98220.03
2023-03-25T11:05:03.129Z,98222.44
2023-03-25T11:08:18.129Z,98212.66
2023-03-25T11:10:57.413Z,98203.34
2023-03-25T11:13:48.495Z,98199.97
2023-03-25T11:16:22.682Z,98181.84
2023-03-25T11:18:59.508Z,98180.16
2023-03-25T11:21:38.646Z,98137.44
2023-03-25T11:24:09.657Z,98149.31
2023-03-25T11:26:42.646Z,98156.47
2023-03-25T11:29:20.039Z,98152.72
2023-03-25T11:32:08.136Z,98152.28
2023-03-25T11:34:42.707Z,98169.47
2023-03-25T11:37:39.097Z,98152.22
2023-03-25T11:40:21.530Z,98152.22
2023-03-25T11:43:06.110Z,98162.72
2023-03-25T11:45:46.647Z,98141.16
2023-03-25T11:48:37.473Z,98124.81
2023-03-25T11:51:14.822Z,98111.03
2023-03-25T11:53:50.839Z,98124.94
2023-03-25T11:56:26.977Z,98124.72
2023-03-25T11:59:01.457Z,98123.56
2023-03-25T12:01:51.960Z,98137.66
2023-03-25T12:04:28.348Z,98155.22
2023-03-25T12:07:27.654Z,98128.78
2023-03-25T12:10:07.047Z,98075.59
2023-03-25T12:13:00.243Z,98083.19
2023-03-25T12:15:52.312Z,98162.38
2023-03-25T12:18:41.946Z,98165.13
2023-03-25T12:21:40.483Z,98109.81
2023-03-25T12:24:11.731Z,98060.94
2023-03-25T12:27:22.846Z,98064.44
2023-03-25T12:30:22.206Z,98109.28
2023-03-25T12:33:41.901Z,98117.31
2023-03-25T12:36:36.803Z,98143.78
2023-03-25T12:39:43.674Z,98143.69
2023-03-25T12:43:10.092Z,98137.75
2023-03-25T12:46:08.332Z,98142.88
2023-03-25T12:49:27.472Z,98136.47
2023-03-25T12:52:11.726Z,98132.69
2023-03-25T12:55:11.530Z,98135.66
2023-03-25T12:58:02.335Z,98136.56
2023-03-25T13:00:57.906Z,98136.88
2023-03-25T13:04:09.940Z,98118.97
2023-03-25T13:06:50.893Z,98098.59
2023-03-25T13:09:28.379Z,98094.59
2023-03-25T13:12:29.169Z,98077.22
2023-03-25T13:15:26.097Z,98069.75
2023-03-25T13:18:16.559Z,98058.22
2023-03-25T13:21:13.377Z,98052.94
2023-03-25T13:23:44.756Z,98048.53
2023-03-25T13:26:23.566Z,98034.19
2023-03-25T13:28:59.264Z,98061.56
2023-03-25T13:31:35.897Z,98057.41
2023-03-25T13:34:19.164Z,98052.34
2023-03-25T13:37:31.708Z,98045.63
2023-03-25T13:40:14.143Z,98054.69
2023-03-25T13:43:20.683Z,98050.78
2023-03-25T13:46:11.866Z,98057.94
2023-03-25T13:48:59.423Z,98062.00
2023-03-25T13:51:27.829Z,98062.16
2023-03-25T13:54:25.578Z,98060.78
2023-03-25T13:57:36.473Z,98068.88
2023-03-25T14:04:16.795Z,98035.19
2023-03-25T14:06:54.509Z,98035.69
2023-03-25T14:10:08.586Z,98026.91
2023-03-25T14:13:01.822Z,98033.59
2023-03-25T14:15:41.340Z,98041.38
2023-03-25T14:18:18.885Z,98023.09
2023-03-25T14:20:52.610Z,98010.69
2023-03-25T14:23:32.327Z,97997.75
2023-03-25T14:29:09.906Z,97988.78
2023-03-25T14:31:40.027Z,97957.19
2023-03-25T14:34:19.566Z,97981.06
2023-03-25T14:39:36.424Z,97974.72
2023-03-25T14:42:31.553Z,97966.94
2023-03-25T14:45:44.421Z,97958.19
2023-03-25T14:48:52.330Z,97938.53
2023-03-25T14:51:34.623Z,97930.41
2023-03-25T14:54:36.409Z,97945.25
2023-03-25T15:00:54.741Z,97955.66
2023-03-25T15:03:29.456Z,97962.97
2023-03-25T15:06:06.117Z,97981.13
2023-03-25T15:08:41.563Z,97979.00
2023-03-25T15:11:14.979Z,97964.31
2023-03-25T15:13:52.818Z,97976.59
2023-03-25T15:16:47.650Z,97977.78
2023-03-25T15:19:20.648Z,97984.13
2023-03-25T15:22:01.063Z,97998.22
2023-03-25T15:24:43.418Z,97990.94
2023-03-25T15:27:51.827Z,97978.44
2023-03-25T15:30:59.957Z,97976.78
2023-03-25T15:33:44.836Z,97986.75
2023-03-25T15:36:40.167Z,97992.59
2023-03-25T15:39:39.279Z,97983.19
2023-03-25T15:42:36.261Z,97994.75
2023-03-25T15:45:34.569Z,97995.84
2023-03-25T15:51:56.041Z,97998.94
2023-03-25T15:55:08.986Z,98011.66
2023-03-25T16:00:44.694Z,98013.94
2023-03-25T16:03:29.056Z,98016.06
2023-03-25T16:06:04.132Z,98014.13
2023-03-25T16:08:41.897Z,98017.44
2023-03-25T16:11:30.999Z,98026.03
2023-03-25T16:14:16.606Z,98027.81
2023-03-25T16:16:58.993Z,98020.97
2023-03-25T16:19:42.387Z,98014.22
2023-03-25T16:22:21.078Z,97997.56
2023-03-25T16:27:48.182Z,97971.63
2023-03-25T16:30:39.749Z,97972.94
2023-03-25T16:33:11.996Z,97976.50
2023-03-25T16:36:04.348Z,97972.44
2023-03-25T16:38:38.428Z,97970.81
2023-03-25T16:41:16.845Z,97971.47
2023-03-25T16:43:49.940Z,97965.13
2023-03-25T16:46:26.243Z,97960.78
2023-03-25T16:48:57.948Z,97970.06
2023-03-25T16:51:37.424Z,97967.63
2023-03-25T16:54:23.462Z,97978.69
2023-03-25T16:56:54.402Z,97977.00
2023-03-25T16:59:42.535Z,97967.91
2023-03-25T17:02:33.485Z,97976.38
2023-03-25T17:05:24.509Z,97993.53
2023-03-25T17:08:08.092Z,97987.34
2023-03-25T17:10:55.216Z,97992.25
2023-03-25T17:13:56.066Z,97985.09
2023-03-25T17:16:27.716Z,97995.94
2023-03-25T17:19:11.924Z,97997.91
2023-03-25T17:22:05.541Z,98011.72
2023-03-25T17:24:45.717Z,98003.91
2023-03-25T17:27:44.255Z,98017.31
2023-03-25T17:30:48.522Z,98019.34
2023-03-25T17:33:39.833Z,98021.44
2023-03-25T17:36:22.716Z,97999.63
2023-03-25T17:38:53.886Z,98003.31
2023-03-25T17:44:17.877Z,98025.63
2023-03-25T17:46:58.349Z,98021.84
2023-03-25T17:49:34.753Z,98029.13
2023-03-25T17:52:05.168Z,98027.63
2023-03-25T17:54:41.689Z,98033.28
2023-03-25T17:57:30.599Z,98030.16
2023-03-25T18:00:05.608Z,98030.50
2023-03-25T18:02:37.692Z,98040.44
2023-03-25T18:05:19.724Z,98043.78
2023-03-25T18:07:52.595Z,98052.28
2023-03-25T18:10:27.484Z,98057.59
2023-03-25T18:13:09.499Z,98060.56
2023-03-25T18:15:42.193Z,98055.03
2023-03-25T18:18:18.692Z,98063.28
2023-03-25T18:20:52.276Z,98070.88
2023-03-25T18:23:21.628Z,98072.78
2023-03-25T18:25:52.544Z,98052.72
2023-03-25T18:28:26.982Z,98072.19
2023-03-25T18:31:00.568Z,98074.28
2023-03-25T18:33:37.750Z,98081.53
2023-03-25T18:36:09.493Z,98073.84
2023-03-25T18:38:48.523Z,98071.47
2023-03-25T18:41:19.380Z,98064.63
2023-03-25T18:43:50.759Z,98051.66
2023-03-25T18:46:27.240Z,98067.03
2023-03-25T18:49:04.738Z,98073.63
2023-03-25T18:51:32.747Z,98069.00
2023-03-25T18:54:11.433Z,98083.38
2023-03-25T18:59:30.105Z,98090.41
2023-03-25T19:02:03.795Z,98094.66
2023-03-25T19:04:50.471Z,98097.03
2023-03-25T19:07:34.284Z,98098.13
2023-03-25T19:10:05.662Z,98098.78
2023-03-25T19:12:43.231Z,98090.47
2023-03-25T19:15:27.658Z,98085.88
2023-03-25T19:18:05.800Z,98104.66
2023-03-25T19:20:39.082Z,98101.56
2023-03-25T19:23:08.374Z,98074.22
2023-03-25T19:25:40.617Z,98104.19
2023-03-25T19:28:11.044Z,98103.56
2023-03-25T19:30:54.086Z,98091.94
2023-03-25T19:33:22.240Z,98088.41
2023-03-25T19:38:39.385Z,98087.16
2023-03-25T19:41:11.167Z,98080.56
2023-03-25T19:43:47.303Z,98069.53
2023-03-25T19:46:28.901Z,98090.84
2023-03-25T19:48:56.911Z,98100.47
2023-03-25T19:51:29.829Z,98102.66
2023-03-25T19:54:00.885Z,98106.13
2023-03-25T19:59:24.682Z,98100.72
2023-03-25T20:01:55.770Z,98101.91
2023-03-25T20:04:31.651Z,98100.22
2023-03-25T20:07:02.355Z,98090.63
2023-03-25T20:09:33.851Z,98094.34
2023-03-25T20:12:07.281Z,98101.03
2023-03-25T20:14:41.207Z,98094.38
2023-03-25T20:17:11.619Z,98098.66
2023-03-25T20:19:42.040Z,98101.53
2023-03-25T20:22:25.896Z,98110.75
2023-03-25T20:25:03.576Z,98105.31
2023-03-25T20:27:40.272Z,98104.09
2023-03-25T20:30:13.301Z,98090.16
2023-03-25T20:32:45.703Z,98099.00
2023-03-25T20:35:27.533Z,98090.31
2023-03-25T20:37:56.339Z,98093.00
2023-03-25T20:40:37.174Z,98100.84
2023-03-25T20:46:06.539Z,98120.50
2023-03-25T20:48:40.112Z,98130.66
2023-03-25T20:51:13.157Z,98119.19
2023-03-25T20:54:03.723Z,98125.81
2023-03-25T20:56:44.155Z,98129.25
2023-03-25T20:59:17.790Z,98125.84
2023-03-25T21:01:50.576Z,98138.84
2023-03-25T21:04:27.482Z,98132.84
2023-03-25T21:06:57.786Z,98135.34
2023-03-25T21:09:28.299Z,98125.09
2023-03-25T21:11:58.680Z,98124.53
2023-03-25T21:14:37.172Z,98078.50
2023-03-25T21:17:13.608Z,98139.94
2023-03-25T21:19:42.934Z,98128.69
2023-03-25T21:22:14.057Z,98128.59
2023-03-25T21:24:44.107Z,98136.50
2023-03-25T21:27:19.350Z,98132.03
2023-03-25T21:29:47.524Z,98125.50
2023-03-25T21:32:15.246Z,98125.78
2023-03-25T21:34:45.796Z,98111.88
2023-03-25T21:37:17.155Z,98127.88
2023-03-25T21:39:50.472Z,98116.09
2023-03-25T21:42:30.081Z,98130.34
2023-03-25T21:45:02.654Z,98121.16
2023-03-25T21:47:37.272Z,98118.75
2023-03-25T21:50:20.761Z,98114.38
2023-03-25T21:52:49.257Z,98129.22
2023-03-25T21:55:29.842Z,98123.22
2023-03-25T21:58:01.148Z,98130.25
2023-03-25T22:00:33.958Z,98140.03
2023-03-25T22:03:10.084Z,98156.84
2023-03-25T22:05:42.426Z,98172.16
2023-03-25T22:08:14.194Z,98166.59
2023-03-25T22:10:44.902Z,98166.75
2023-03-25T22:13:15.627Z,98164.59
2023-03-25T22:18:40.524Z,98176.41
2023-03-25T22:21:29.585Z,98182.44
2023-03-25T22:24:02.385Z,98201.88
2023-03-25T22:26:35.065Z,98206.31
2023-03-25T22:29:19.160Z,98205.63
2023-03-25T22:31:50.776Z,98197.63
2023-03-25T22:34:24.174Z,98174.75
2023-03-25T22:39:40.943Z,98121.25
2023-03-25T22:42:13.468Z,98081.91
2023-03-25T22:44:44.906Z,98099.72
2023-03-25T22:47:15.466Z,98128.38
2023-03-25T22:49:43.157Z,98108.34
2023-03-25T22:52:12.616Z,98138.66
2023-03-25T22:57:24.297Z,98149.56
2023-03-25T22:59:58.130Z,98159.16
2023-03-25T23:02:40.785Z,98159.09
2023-03-25T23:05:11.363Z,98145.97
2023-03-25T23:07:39.317Z,98156.59
2023-03-25T23:10:10.536Z,98130.06
2023-03-25T23:12:41.493Z,98151.84
2023-03-25T23:15:19.520Z,98167.25
2023-03-25T23:17:49.623Z,98174.56
2023-03-25T23:20:27.044Z,98162.03
2023-03-25T23:23:04.697Z,98146.81
2023-03-25T23:25:33.937Z,98140.88
2023-03-25T23:28:06.922Z,98154.13
2023-03-25T23:33:30.268Z,98149.00
2023-03-25T23:36:07.829Z,98158.28
2023-03-25T23:38:39.648Z,98166.47
2023-03-25T23:41:11.218Z,98170.09
2023-03-25T23:43:41.819Z,98168.69
2023-03-25T23:46:15.295Z,98152.13
2023-03-25T23:48:44.519Z,98184.41
2023-03-25T23:54:21.574Z,98168.03
2023-03-25T23:57:02.201Z,98175.41
2023-03-25T23:59:32.467Z,98166.38
